createdAt,value
2022-11-27T00:01:54.565Z,11.43
2022-11-27T00:06:03.433Z,10.90
2022-11-27T00:10:09.190Z,12.27
2022-11-27T00:14:13.293Z,15.03
2022-11-27T00:18:15.295Z,14.13
2022-11-27T00:22:17.190Z,18.00
2022-11-27T00:26:19.501Z,15.90
2022-11-27T00:30:21.505Z,14.37
2022-11-27T00:34:23.475Z,11.27
2022-11-27T00:38:25.435Z,13.90
2022-11-27T00:42:27.601Z,12.63
2022-11-27T00:46:30.960Z,12.10
2022-11-27T00:50:34.073Z,10.43
2022-11-27T00:54:36.042Z,15.30
2022-11-27T00:58:38.080Z,11.57
2022-11-27T01:02:40.731Z,12.83
2022-11-27T01:06:49.746Z,11.43
2022-11-27T01:10:58.963Z,10.33
2022-11-27T01:15:10.644Z,9.63
2022-11-27T01:19:13.062Z,10.53
2022-11-27T01:23:15.006Z,11.33
2022-11-27T01:27:16.860Z,10.20
2022-11-27T01:31:21.815Z,9.30
2022-11-27T01:35:23.863Z,10.73
2022-11-27T01:39:25.798Z,10.50
2022-11-27T01:43:43.677Z,10.17
2022-11-27T01:47:57.633Z,10.83
2022-11-27T01:52:21.285Z,11.23
2022-11-27T01:56:23.279Z,11.77
2022-11-27T02:00:25.383Z,11.93
2022-11-27T02:04:27.402Z,10.83
2022-11-27T02:08:35.059Z,12.90
2022-11-27T02:13:26.793Z,11.20
2022-11-27T02:17:40.792Z,9.90
2022-11-27T02:21:57.934Z,12.97
2022-11-27T02:26:27.530Z,8.90
2022-11-27T02:30:31.177Z,10.17
2022-11-27T02:34:38.014Z,10.07
2022-11-27T02:38:44.490Z,7.83
2022-11-27T02:42:56.163Z,7.63
2022-11-27T02:46:58.142Z,11.00
2022-11-27T02:51:00.368Z,13.10
2022-11-27T02:55:05.540Z,11.10
2022-11-27T02:59:10.466Z,11.33
2022-11-27T03:03:13.476Z,12.20
2022-11-27T03:07:31.566Z,13.37
2022-11-27T03:11:40.454Z,11.27
2022-11-27T03:16:00.906Z,9.80
2022-11-27T03:20:22.480Z,12.33
2022-11-27T03:24:24.817Z,12.00
2022-11-27T03:28:27.006Z,10.33
2022-11-27T03:32:29.167Z,10.80
2022-11-27T03:36:31.098Z,10.07
2022-11-27T03:40:50.319Z,10.93
2022-11-27T03:45:22.861Z,10.27
2022-11-27T03:50:04.651Z,10.87
2022-11-27T03:54:50.193Z,14.00
2022-11-27T03:59:20.767Z,12.33
2022-11-27T04:03:25.663Z,10.97
2022-11-27T04:07:27.574Z,12.97
2022-11-27T04:11:29.539Z,14.90
2022-11-27T04:15:31.420Z,11.57
2022-11-27T04:19:33.301Z,11.60
2022-11-27T04:23:35.212Z,10.43
2022-11-27T04:27:37.095Z,11.60
2022-11-27T04:31:39.140Z,10.53
2022-11-27T04:35:41.111Z,8.93
2022-11-27T04:39:42.887Z,9.87
2022-11-27T04:43:44.771Z,11.23
2022-11-27T04:47:46.684Z,9.93
2022-11-27T04:51:48.606Z,14.97
2022-11-27T04:55:52.505Z,11.83
2022-11-27T04:59:54.656Z,13.10
2022-11-27T05:03:56.464Z,9.97
2022-11-27T05:07:58.403Z,11.63
2022-11-27T05:12:00.265Z,10.20
2022-11-27T05:16:02.337Z,10.40
2022-11-27T05:20:05.027Z,12.07
2022-11-27T05:24:07.157Z,9.87
2022-11-27T05:28:09.039Z,11.43
2022-11-27T05:32:11.006Z,10.90
2022-11-27T05:36:13.047Z,11.97
2022-11-27T05:40:19.520Z,11.13
2022-11-27T05:44:22.094Z,12.37
2022-11-27T05:48:24.482Z,13.37
2022-11-27T05:52:27.203Z,12.97
2022-11-27T05:56:29.504Z,9.30
2022-11-27T06:00:31.701Z,12.67
2022-11-27T06:04:34.904Z,13.10
2022-11-27T06:08:37.692Z,11.33
2022-11-27T06:12:39.712Z,12.00
2022-11-27T06:16:41.720Z,12.13
2022-11-27T06:20:46.862Z,13.27
2022-11-27T06:24:52.090Z,12.60
2022-11-27T06:28:54.893Z,9.93
2022-11-27T06:32:56.919Z,10.83
2022-11-27T06:36:59.432Z,11.77
2022-11-27T06:41:19.142Z,9.10
2022-11-27T06:45:21.300Z,9.17
2022-11-27T06:49:27.167Z,9.73
2022-11-27T06:53:33.529Z,9.20
2022-11-27T06:57:35.330Z,11.87
2022-11-27T07:01:37.211Z,8.97
2022-11-27T07:06:15.298Z,9.57
2022-11-27T07:10:17.404Z,6.87
2022-11-27T07:14:19.251Z,9.73
2022-11-27T07:18:21.166Z,7.07
2022-11-27T07:22:29.108Z,8.10
2022-11-27T09:42:13.405Z,12.30
2022-11-27T09:46:28.825Z,10.70
2022-11-27T09:50:41.358Z,13.33
2022-11-27T09:55:10.122Z,12.47
2022-11-27T09:59:21.978Z,15.73
2022-11-27T10:03:50.160Z,15.77
2022-11-27T10:08:12.499Z,14.37
2022-11-27T10:24:44.715Z,13.63
2022-11-27T10:35:07.558Z,14.73
2022-11-27T10:45:50.190Z,13.30
2022-11-27T11:01:05.435Z,12.63
2022-11-27T11:16:39.240Z,13.93
2022-11-27T11:22:09.173Z,11.37
2022-11-27T11:27:26.224Z,10.83
2022-11-27T11:32:07.574Z,15.47
2022-11-27T11:46:51.713Z,7.17
2022-11-27T11:52:31.003Z,11.07
2022-11-27T11:57:11.099Z,10.03
2022-11-27T12:02:22.675Z,8.30
2022-11-27T12:07:30.136Z,6.67
2022-11-27T12:11:47.836Z,7.33
2022-11-27T12:16:29.346Z,7.63
2022-11-27T12:21:12.515Z,8.03
2022-11-27T12:25:58.474Z,8.10
2022-11-27T12:48:49.897Z,8.50
2022-11-27T13:38:18.565Z,8.23
2022-11-27T13:42:22.580Z,6.73
2022-11-27T13:46:27.571Z,8.03
2022-11-27T13:50:31.860Z,8.87
2022-11-27T13:54:36.789Z,11.37
2022-11-27T13:58:40.786Z,8.77
2022-11-27T14:02:50.941Z,7.33
2022-11-27T14:07:07.046Z,6.23
2022-11-27T14:11:14.002Z,7.10
2022-11-27T14:15:18.932Z,7.27
2022-11-27T14:19:35.822Z,8.07
2022-11-27T14:23:49.956Z,8.67
2022-11-27T14:28:12.695Z,7.53
2022-11-27T14:32:21.362Z,7.07
2022-11-27T14:36:31.899Z,7.33
2022-11-27T14:40:33.787Z,8.93
2022-11-27T14:44:35.701Z,6.53
2022-11-27T14:48:57.432Z,7.17
2022-11-27T14:52:59.370Z,4.90
2022-11-27T14:57:01.443Z,8.00
2022-11-27T15:01:09.349Z,5.93
2022-11-27T15:05:25.355Z,7.93
2022-11-27T15:09:43.434Z,7.63
2022-11-27T15:13:51.511Z,7.93
2022-11-27T15:17:58.748Z,7.30
2022-11-27T15:22:00.672Z,8.17
2022-11-27T15:26:02.575Z,8.40
2022-11-27T15:30:12.867Z,9.97
2022-11-27T15:34:17.456Z,8.03
2022-11-27T15:38:19.359Z,9.00
2022-11-27T15:42:21.499Z,7.30
2022-11-27T15:46:32.714Z,5.93
2022-11-27T15:50:39.890Z,7.30
2022-11-27T15:54:42.098Z,10.37
2022-11-27T15:58:44.149Z,7.67
2022-11-27T16:02:46.213Z,9.17
2022-11-27T16:06:48.133Z,11.30
2022-11-27T16:10:50.045Z,11.13
2022-11-27T16:15:02.930Z,10.27
2022-11-27T16:19:06.423Z,10.53
2022-11-27T16:23:08.426Z,11.57
2022-11-27T16:27:18.389Z,11.70
2022-11-27T16:31:20.610Z,12.97
2022-11-27T16:35:32.056Z,13.50
2022-11-27T16:39:38.467Z,13.43
2022-11-27T16:50:47.455Z,12.73
2022-11-27T16:54:52.935Z,14.30
2022-11-27T17:00:15.943Z,16.63
2022-11-27T17:08:48.525Z,12.07
2022-11-27T19:16:56.585Z,19.00
2022-11-27T19:21:01.853Z,16.37
2022-11-27T19:25:09.066Z,19.90
2022-11-27T19:29:18.433Z,19.13
2022-11-27T19:46:20.569Z,20.53
2022-11-27T20:12:22.972Z,19.43
2022-11-27T20:16:25.369Z,21.40
2022-11-27T20:20:33.933Z,20.87
2022-11-27T20:24:58.128Z,21.03
2022-11-27T20:29:01.313Z,25.80
2022-11-27T20:33:07.982Z,24.10
2022-11-27T20:37:19.406Z,26.43
2022-11-27T20:41:27.178Z,23.03
2022-11-27T20:45:32.186Z,19.97
2022-11-27T20:49:34.081Z,22.50
2022-11-27T20:53:36.572Z,23.50
2022-11-27T20:57:38.648Z,22.17
2022-11-27T21:01:44.381Z,26.30
2022-11-27T21:06:31.354Z,22.40
2022-11-27T21:10:58.068Z,23.07
2022-11-27T21:15:20.830Z,21.63
2022-11-27T21:19:53.766Z,23.43
2022-11-27T21:24:07.027Z,20.33
2022-11-27T21:28:36.844Z,23.07
2022-11-27T21:32:51.203Z,26.30
2022-11-27T21:36:59.419Z,21.23
2022-11-27T21:41:01.304Z,25.30
2022-11-27T21:45:05.715Z,23.07
2022-11-27T21:49:23.028Z,25.73
2022-11-27T21:53:25.027Z,20.97
2022-11-27T21:57:26.897Z,22.47
2022-11-27T22:01:28.827Z,20.87
2022-11-27T22:05:30.842Z,22.40
2022-11-27T22:09:33.641Z,22.57
2022-11-27T22:13:36.201Z,22.83
2022-11-27T22:17:38.505Z,20.27
2022-11-27T22:21:40.380Z,21.57
2022-11-27T22:25:42.183Z,21.87
2022-11-27T22:29:44.046Z,19.80
2022-11-27T22:33:46.345Z,22.87
2022-11-27T22:37:48.389Z,19.27
2022-11-27T22:41:50.372Z,23.23
2022-11-27T22:45:52.242Z,19.00
2022-11-27T22:49:54.217Z,21.73
2022-11-27T22:53:56.102Z,19.97
2022-11-27T22:57:58.067Z,19.20
2022-11-27T23:01:59.995Z,19.13
2022-11-27T23:06:01.957Z,18.17
2022-11-27T23:10:04.251Z,19.50
2022-11-27T23:14:06.232Z,19.90
2022-11-27T23:18:08.367Z,19.40
2022-11-27T23:22:10.242Z,17.97
2022-11-27T23:26:20.437Z,18.10
2022-11-27T23:30:22.296Z,20.20
2022-11-27T23:34:24.338Z,20.50
2022-11-27T23:38:26.250Z,19.97
2022-11-27T23:42:28.245Z,17.87
2022-11-27T23:46:30.576Z,16.33
2022-11-27T23:50:32.407Z,18.40
2022-11-27T23:54:34.326Z,19.00
2022-11-27T23:58:36.354Z,19.43
